sensor_id;sensor_type;location;lat;lon;timestamp;P1;durP1;ratioP1;P2;durP2;ratioP2
23376;SDS011;14353;46.070;13.222;2023-05-15T00:00:13;0.80;;;0.70;;
23376;SDS011;14353;46.070;13.222;2023-05-15T00:02:39;0.82;;;0.82;;
23376;SDS011;14353;46.070;13.222;2023-05-15T00:05:05;0.55;;;0.52;;
23376;SDS011;14353;46.070;13.222;2023-05-15T00:07:32;0.95;;;0.80;;
23376;SDS011;14353;46.070;13.222;2023-05-15T00:09:58;0.95;;;0.80;;
23376;SDS011;14353;46.070;13.222;2023-05-15T00:12:23;0.80;;;0.80;;
23376;SDS011;14353;46.070;13.222;2023-05-15T00:14:49;0.70;;;0.70;;
23376;SDS011;14353;46.070;13.222;2023-05-15T00:17:15;0.77;;;0.73;;
23376;SDS011;14353;46.070;13.222;2023-05-15T00:19:40;0.70;;;0.70;;
23376;SDS011;14353;46.070;13.222;2023-05-15T00:22:06;0.70;;;0.70;;
23376;SDS011;14353;46.070;13.222;2023-05-15T00:24:32;1.15;;;0.68;;
23376;SDS011;14353;46.070;13.222;2023-05-15T00:26:59;0.70;;;0.70;;
23376;SDS011;14353;46.070;13.222;2023-05-15T00:29:25;0.93;;;0.80;;
23376;SDS011;14353;46.070;13.222;2023-05-15T00:31:51;0.80;;;0.70;;
23376;SDS011;14353;46.070;13.222;2023-05-15T00:34:16;0.70;;;0.70;;
23376;SDS011;14353;46.070;13.222;2023-05-15T00:36:42;1.05;;;0.95;;
23376;SDS011;14353;46.070;13.222;2023-05-15T00:39:08;0.93;;;0.70;;
23376;SDS011;14353;46.070;13.222;2023-05-15T00:41:34;1.20;;;0.70;;
23376;SDS011;14353;46.070;13.222;2023-05-15T00:44:01;0.82;;;0.80;;
23376;SDS011;14353;46.070;13.222;2023-05-15T00:46:27;0.80;;;0.80;;
23376;SDS011;14353;46.070;13.222;2023-05-15T00:48:56;0.70;;;0.70;;
23376;SDS011;14353;46.070;13.222;2023-05-15T00:51:22;1.00;;;0.90;;
23376;SDS011;14353;46.070;13.222;2023-05-15T00:53:48;0.90;;;0.80;;
23376;SDS011;14353;46.070;13.222;2023-05-15T00:56:16;0.85;;;0.80;;
23376;SDS011;14353;46.070;13.222;2023-05-15T00:58:42;0.70;;;0.70;;
23376;SDS011;14353;46.070;13.222;2023-05-15T01:01:12;0.68;;;0.68;;
23376;SDS011;14353;46.070;13.222;2023-05-15T01:03:39;0.80;;;0.80;;
23376;SDS011;14353;46.070;13.222;2023-05-15T01:06:05;0.70;;;0.70;;
23376;SDS011;14353;46.070;13.222;2023-05-15T01:08:44;0.85;;;0.85;;
23376;SDS011;14353;46.070;13.222;2023-05-15T01:11:11;0.85;;;0.85;;
23376;SDS011;14353;46.070;13.222;2023-05-15T01:13:38;0.80;;;0.80;;
23376;SDS011;14353;46.070;13.222;2023-05-15T01:16:05;0.70;;;0.70;;
23376;SDS011;14353;46.070;13.222;2023-05-15T01:18:31;0.77;;;0.77;;
23376;SDS011;14353;46.070;13.222;2023-05-15T01:28:51;0.82;;;0.80;;
23376;SDS011;14353;46.070;13.222;2023-05-15T01:31:25;0.90;;;0.80;;
23376;SDS011;14353;46.070;13.222;2023-05-15T01:33:56;0.70;;;0.70;;
23376;SDS011;14353;46.070;13.222;2023-05-15T01:36:31;1.48;;;1.00;;
23376;SDS011;14353;46.070;13.222;2023-05-15T01:39:09;0.85;;;0.70;;
23376;SDS011;14353;46.070;13.222;2023-05-15T01:44:26;0.70;;;0.70;;
23376;SDS011;14353;46.070;13.222;2023-05-15T01:46:54;0.80;;;0.80;;
23376;SDS011;14353;46.070;13.222;2023-05-15T01:49:25;0.88;;;0.85;;
23376;SDS011;14353;46.070;13.222;2023-05-15T01:51:54;0.82;;;0.80;;
23376;SDS011;14353;46.070;13.222;2023-05-15T01:54:26;1.20;;;0.77;;
23376;SDS011;14353;46.070;13.222;2023-05-15T01:56:54;0.80;;;0.80;;
23376;SDS011;14353;46.070;13.222;2023-05-15T01:59:21;0.80;;;0.80;;
23376;SDS011;14353;46.070;13.222;2023-05-15T02:01:49;0.80;;;0.80;;
23376;SDS011;14353;46.070;13.222;2023-05-15T02:04:15;0.73;;;0.70;;
23376;SDS011;14353;46.070;13.222;2023-05-15T02:06:42;0.93;;;0.80;;
23376;SDS011;14353;46.070;13.222;2023-05-15T02:09:08;1.40;;;0.90;;
23376;SDS011;14353;46.070;13.222;2023-05-15T02:11:35;0.70;;;0.70;;
23376;SDS011;14353;46.070;13.222;2023-05-15T02:14:01;0.80;;;0.80;;
23376;SDS011;14353;46.070;13.222;2023-05-15T02:16:29;0.93;;;0.77;;
23376;SDS011;14353;46.070;13.222;2023-05-15T02:18:55;0.80;;;0.70;;
23376;SDS011;14353;46.070;13.222;2023-05-15T02:21:20;0.95;;;0.85;;
23376;SDS011;14353;46.070;13.222;2023-05-15T02:23:46;1.10;;;0.80;;
23376;SDS011;14353;46.070;13.222;2023-05-15T02:37:23;1.42;;;0.90;;
23376;SDS011;14353;46.070;13.222;2023-05-15T02:39:53;0.85;;;0.80;;
23376;SDS011;14353;46.070;13.222;2023-05-15T02:42:22;0.77;;;0.75;;
23376;SDS011;14353;46.070;13.222;2023-05-15T02:44:48;0.85;;;0.80;;
23376;SDS011;14353;46.070;13.222;2023-05-15T02:47:16;0.60;;;0.60;;
23376;SDS011;14353;46.070;13.222;2023-05-15T02:49:43;0.80;;;0.80;;
23376;SDS011;14353;46.070;13.222;2023-05-15T02:52:09;0.80;;;0.80;;
23376;SDS011;14353;46.070;13.222;2023-05-15T02:54:35;1.27;;;0.88;;
23376;SDS011;14353;46.070;13.222;2023-05-15T02:57:03;0.63;;;0.63;;
23376;SDS011;14353;46.070;13.222;2023-05-15T02:59:29;0.95;;;0.82;;
23376;SDS011;14353;46.070;13.222;2023-05-15T03:01:55;1.05;;;0.73;;
23376;SDS011;14353;46.070;13.222;2023-05-15T03:04:20;1.00;;;0.90;;
23376;SDS011;14353;46.070;13.222;2023-05-15T03:06:46;0.75;;;0.70;;
23376;SDS011;14353;46.070;13.222;2023-05-15T03:09:12;0.82;;;0.82;;
23376;SDS011;14353;46.070;13.222;2023-05-15T03:11:37;0.90;;;0.70;;
23376;SDS011;14353;46.070;13.222;2023-05-15T03:14:03;0.77;;;0.73;;
23376;SDS011;14353;46.070;13.222;2023-05-15T03:16:29;1.17;;;0.80;;
23376;SDS011;14353;46.070;13.222;2023-05-15T03:18:55;0.65;;;0.60;;
23376;SDS011;14353;46.070;13.222;2023-05-15T03:21:20;0.90;;;0.70;;
23376;SDS011;14353;46.070;13.222;2023-05-15T03:23:46;0.77;;;0.77;;
23376;SDS011;14353;46.070;13.222;2023-05-15T03:26:11;0.70;;;0.70;;
23376;SDS011;14353;46.070;13.222;2023-05-15T03:28:37;0.60;;;0.60;;
23376;SDS011;14353;46.070;13.222;2023-05-15T03:31:03;0.75;;;0.70;;
23376;SDS011;14353;46.070;13.222;2023-05-15T03:33:29;0.68;;;0.68;;
23376;SDS011;14353;46.070;13.222;2023-05-15T03:35:55;1.40;;;0.90;;
23376;SDS011;14353;46.070;13.222;2023-05-15T03:38:21;0.68;;;0.68;;
23376;SDS011;14353;46.070;13.222;2023-05-15T03:40:47;0.80;;;0.77;;
23376;SDS011;14353;46.070;13.222;2023-05-15T03:43:12;0.70;;;0.70;;
23376;SDS011;14353;46.070;13.222;2023-05-15T03:45:38;0.70;;;0.70;;
23376;SDS011;14353;46.070;13.222;2023-05-15T03:48:04;0.70;;;0.70;;
23376;SDS011;14353;46.070;13.222;2023-05-15T03:50:30;1.00;;;0.70;;
23376;SDS011;14353;46.070;13.222;2023-05-15T03:52:55;1.02;;;0.80;;
23376;SDS011;14353;46.070;13.222;2023-05-15T03:55:21;0.80;;;0.80;;
23376;SDS011;14353;46.070;13.222;2023-05-15T03:57:47;1.02;;;0.70;;
23376;SDS011;14353;46.070;13.222;2023-05-15T04:00:13;0.80;;;0.70;;
23376;SDS011;14353;46.070;13.222;2023-05-15T04:02:39;0.70;;;0.70;;
23376;SDS011;14353;46.070;13.222;2023-05-15T04:05:05;1.02;;;0.70;;
23376;SDS011;14353;46.070;13.222;2023-05-15T04:07:32;0.77;;;0.77;;
23376;SDS011;14353;46.070;13.222;2023-05-15T04:09:59;0.68;;;0.68;;
23376;SDS011;14353;46.070;13.222;2023-05-15T04:12:28;0.95;;;0.85;;
23376;SDS011;14353;46.070;13.222;2023-05-15T04:17:58;0.60;;;0.60;;
23376;SDS011;14353;46.070;13.222;2023-05-15T04:20:24;0.82;;;0.82;;
23376;SDS011;14353;46.070;13.222;2023-05-15T04:22:50;0.60;;;0.60;;
23376;SDS011;14353;46.070;13.222;2023-05-15T04:25:17;1.08;;;0.80;;
23376;SDS011;14353;46.070;13.222;2023-05-15T04:27:44;0.70;;;0.65;;
23376;SDS011;14353;46.070;13.222;2023-05-15T04:30:10;0.70;;;0.60;;
23376;SDS011;14353;46.070;13.222;2023-05-15T04:32:37;0.90;;;0.70;;
23376;SDS011;14353;46.070;13.222;2023-05-15T04:35:04;0.70;;;0.70;;
23376;SDS011;14353;46.070;13.222;2023-05-15T04:37:34;0.70;;;0.70;;
23376;SDS011;14353;46.070;13.222;2023-05-15T04:40:03;0.77;;;0.60;;
23376;SDS011;14353;46.070;13.222;2023-05-15T04:42:30;0.77;;;0.70;;
23376;SDS011;14353;46.070;13.222;2023-05-15T04:44:56;1.00;;;0.70;;
23376;SDS011;14353;46.070;13.222;2023-05-15T04:47:22;1.55;;;0.90;;
23376;SDS011;14353;46.070;13.222;2023-05-15T04:49:47;0.60;;;0.60;;
23376;SDS011;14353;46.070;13.222;2023-05-15T04:52:14;0.80;;;0.75;;
23376;SDS011;14353;46.070;13.222;2023-05-15T04:54:40;0.82;;;0.70;;
23376;SDS011;14353;46.070;13.222;2023-05-15T04:57:06;0.57;;;0.57;;
23376;SDS011;14353;46.070;13.222;2023-05-15T04:59:32;0.77;;;0.60;;
23376;SDS011;14353;46.070;13.222;2023-05-15T05:01:57;0.73;;;0.73;;
23376;SDS011;14353;46.070;13.222;2023-05-15T05:04:23;0.70;;;0.70;;
23376;SDS011;14353;46.070;13.222;2023-05-15T05:06:50;1.05;;;0.70;;
23376;SDS011;14353;46.070;13.222;2023-05-15T05:09:17;1.15;;;0.73;;
23376;SDS011;14353;46.070;13.222;2023-05-15T05:11:43;2.05;;;0.82;;
23376;SDS011;14353;46.070;13.222;2023-05-15T05:14:12;0.57;;;0.57;;
23376;SDS011;14353;46.070;13.222;2023-05-15T05:16:39;0.63;;;0.60;;
23376;SDS011;14353;46.070;13.222;2023-05-15T05:19:05;0.57;;;0.50;;
23376;SDS011;14353;46.070;13.222;2023-05-15T05:21:31;0.65;;;0.65;;
23376;SDS011;14353;46.070;13.222;2023-05-15T05:23:57;0.50;;;0.50;;
23376;SDS011;14353;46.070;13.222;2023-05-15T05:26:23;0.90;;;0.70;;
23376;SDS011;14353;46.070;13.222;2023-05-15T05:28:50;0.60;;;0.60;;
23376;SDS011;14353;46.070;13.222;2023-05-15T05:31:16;0.50;;;0.50;;
23376;SDS011;14353;46.070;13.222;2023-05-15T05:33:41;0.90;;;0.65;;
23376;SDS011;14353;46.070;13.222;2023-05-15T05:36:07;0.70;;;0.70;;
23376;SDS011;14353;46.070;13.222;2023-05-15T05:38:33;0.70;;;0.70;;
23376;SDS011;14353;46.070;13.222;2023-05-15T05:41:00;0.70;;;0.70;;
23376;SDS011;14353;46.070;13.222;2023-05-15T05:43:26;1.08;;;0.68;;
23376;SDS011;14353;46.070;13.222;2023-05-15T05:45:51;0.65;;;0.65;;
23376;SDS011;14353;46.070;13.222;2023-05-15T05:48:17;0.70;;;0.70;;
23376;SDS011;14353;46.070;13.222;2023-05-15T05:50:43;1.15;;;0.73;;
23376;SDS011;14353;46.070;13.222;2023-05-15T05:53:09;1.00;;;0.88;;
23376;SDS011;14353;46.070;13.222;2023-05-15T05:55:34;0.82;;;0.60;;
23376;SDS011;14353;46.070;13.222;2023-05-15T05:58:00;0.73;;;0.73;;
23376;SDS011;14353;46.070;13.222;2023-05-15T06:00:26;2.03;;;0.63;;
23376;SDS011;14353;46.070;13.222;2023-05-15T06:02:54;3.38;;;0.90;;
23376;SDS011;14353;46.070;13.222;2023-05-15T06:05:21;7.85;;;1.27;;
23376;SDS011;14353;46.070;13.222;2023-05-15T06:07:47;7.57;;;1.85;;
23376;SDS011;14353;46.070;13.222;2023-05-15T06:10:14;8.00;;;1.80;;
23376;SDS011;14353;46.070;13.222;2023-05-15T06:12:41;9.32;;;1.70;;
23376;SDS011;14353;46.070;13.222;2023-05-15T06:15:08;8.98;;;1.40;;
23376;SDS011;14353;46.070;13.222;2023-05-15T06:17:34;8.40;;;1.60;;
23376;SDS011;14353;46.070;13.222;2023-05-15T06:20:00;5.95;;;1.63;;
23376;SDS011;14353;46.070;13.222;2023-05-15T06:22:29;6.47;;;1.63;;
23376;SDS011;14353;46.070;13.222;2023-05-15T06:24:57;7.40;;;1.27;;
23376;SDS011;14353;46.070;13.222;2023-05-15T06:27:23;7.80;;;1.23;;
23376;SDS011;14353;46.070;13.222;2023-05-15T06:29:50;6.10;;;1.30;;
23376;SDS011;14353;46.070;13.222;2023-05-15T06:32:16;8.32;;;1.30;;
23376;SDS011;14353;46.070;13.222;2023-05-15T06:34:42;4.32;;;1.30;;
23376;SDS011;14353;46.070;13.222;2023-05-15T06:37:08;6.03;;;1.30;;
23376;SDS011;14353;46.070;13.222;2023-05-15T06:39:33;4.85;;;1.25;;
23376;SDS011;14353;46.070;13.222;2023-05-15T06:41:59;4.97;;;1.35;;
23376;SDS011;14353;46.070;13.222;2023-05-15T06:44:26;4.13;;;1.15;;
23376;SDS011;14353;46.070;13.222;2023-05-15T06:46:52;4.13;;;1.02;;
23376;SDS011;14353;46.070;13.222;2023-05-15T06:49:18;0.85;;;0.60;;
23376;SDS011;14353;46.070;13.222;2023-05-15T06:51:47;2.33;;;0.73;;
23376;SDS011;14353;46.070;13.222;2023-05-15T06:54:13;3.17;;;0.90;;
23376;SDS011;14353;46.070;13.222;2023-05-15T06:56:39;8.88;;;1.30;;
23376;SDS011;14353;46.070;13.222;2023-05-15T06:59:05;1.35;;;0.70;;
23376;SDS011;14353;46.070;13.222;2023-05-15T07:01:31;0.93;;;0.57;;
23376;SDS011;14353;46.070;13.222;2023-05-15T07:03:56;4.90;;;1.20;;
23376;SDS011;14353;46.070;13.222;2023-05-15T07:06:22;7.72;;;0.98;;
23376;SDS011;14353;46.070;13.222;2023-05-15T07:08:49;9.25;;;1.30;;
23376;SDS011;14353;46.070;13.222;2023-05-15T07:11:15;3.40;;;0.90;;
23376;SDS011;14353;46.070;13.222;2023-05-15T07:13:41;7.68;;;1.42;;
23376;SDS011;14353;46.070;13.222;2023-05-15T07:16:07;3.42;;;1.20;;
23376;SDS011;14353;46.070;13.222;2023-05-15T07:18:33;6.70;;;1.10;;
23376;SDS011;14353;46.070;13.222;2023-05-15T07:20:58;0.30;;;0.30;;
23376;SDS011;14353;46.070;13.222;2023-05-15T07:23:24;1.52;;;0.80;;
23376;SDS011;14353;46.070;13.222;2023-05-15T07:25:51;1.05;;;0.40;;
23376;SDS011;14353;46.070;13.222;2023-05-15T07:28:18;3.00;;;0.40;;
23376;SDS011;14353;46.070;13.222;2023-05-15T07:30:44;0.60;;;0.30;;
23376;SDS011;14353;46.070;13.222;2023-05-15T07:33:10;0.65;;;0.38;;
23376;SDS011;14353;46.070;13.222;2023-05-15T07:35:36;0.40;;;0.30;;
23376;SDS011;14353;46.070;13.222;2023-05-15T07:38:02;1.15;;;0.30;;
23376;SDS011;14353;46.070;13.222;2023-05-15T07:40:28;1.02;;;0.47;;
23376;SDS011;14353;46.070;13.222;2023-05-15T07:42:53;1.20;;;0.30;;
23376;SDS011;14353;46.070;13.222;2023-05-15T07:45:19;1.98;;;0.50;;
23376;SDS011;14353;46.070;13.222;2023-05-15T07:47:45;0.38;;;0.38;;
23376;SDS011;14353;46.070;13.222;2023-05-15T07:50:12;1.23;;;0.43;;
23376;SDS011;14353;46.070;13.222;2023-05-15T07:52:38;1.25;;;0.50;;
23376;SDS011;14353;46.070;13.222;2023-05-15T07:55:05;1.92;;;0.30;;
23376;SDS011;14353;46.070;13.222;2023-05-15T07:57:31;0.70;;;0.45;;
23376;SDS011;14353;46.070;13.222;2023-05-15T07:59:57;0.15;;;0.15;;
23376;SDS011;14353;46.070;13.222;2023-05-15T08:02:23;0.75;;;0.30;;
23376;SDS011;14353;46.070;13.222;2023-05-15T08:04:49;0.57;;;0.40;;
23376;SDS011;14353;46.070;13.222;2023-05-15T08:07:14;1.10;;;0.50;;
23376;SDS011;14353;46.070;13.222;2023-05-15T08:09:41;0.47;;;0.25;;
23376;SDS011;14353;46.070;13.222;2023-05-15T08:12:17;1.80;;;0.30;;
23376;SDS011;14353;46.070;13.222;2023-05-15T08:14:52;0.35;;;0.30;;
23376;SDS011;14353;46.070;13.222;2023-05-15T08:17:19;0.70;;;0.28;;
23376;SDS011;14353;46.070;13.222;2023-05-15T08:19:45;0.77;;;0.30;;
23376;SDS011;14353;46.070;13.222;2023-05-15T08:22:11;0.40;;;0.30;;
23376;SDS011;14353;46.070;13.222;2023-05-15T08:24:38;1.35;;;0.40;;
23376;SDS011;14353;46.070;13.222;2023-05-15T08:27:04;1.67;;;0.40;;
23376;SDS011;14353;46.070;13.222;2023-05-15T08:29:31;1.85;;;0.30;;
23376;SDS011;14353;46.070;13.222;2023-05-15T08:31:57;0.47;;;0.40;;
23376;SDS011;14353;46.070;13.222;2023-05-15T08:34:23;1.13;;;0.50;;
23376;SDS011;14353;46.070;13.222;2023-05-15T08:36:49;0.50;;;0.38;;
23376;SDS011;14353;46.070;13.222;2023-05-15T08:39:16;0.50;;;0.40;;
23376;SDS011;14353;46.070;13.222;2023-05-15T08:41:52;1.58;;;0.30;;
23376;SDS011;14353;46.070;13.222;2023-05-15T08:44:24;2.70;;;0.85;;
23376;SDS011;14353;46.070;13.222;2023-05-15T08:46:51;9.23;;;0.65;;
23376;SDS011;14353;46.070;13.222;2023-05-15T08:52:09;12.88;;;1.25;;
23376;SDS011;14353;46.070;13.222;2023-05-15T08:54:35;4.65;;;1.20;;
23376;SDS011;14353;46.070;13.222;2023-05-15T08:57:04;4.88;;;0.90;;
23376;SDS011;14353;46.070;13.222;2023-05-15T08:59:31;5.50;;;0.70;;
23376;SDS011;14353;46.070;13.222;2023-05-15T09:01:57;0.82;;;0.40;;
23376;SDS011;14353;46.070;13.222;2023-05-15T09:04:23;1.30;;;0.40;;
23376;SDS011;14353;46.070;13.222;2023-05-15T09:06:49;1.75;;;0.38;;
23376;SDS011;14353;46.070;13.222;2023-05-15T09:09:15;1.08;;;0.40;;
23376;SDS011;14353;46.070;13.222;2023-05-15T09:11:44;0.60;;;0.50;;
23376;SDS011;14353;46.070;13.222;2023-05-15T09:14:12;0.43;;;0.40;;
23376;SDS011;14353;46.070;13.222;2023-05-15T09:16:37;0.80;;;0.30;;
23376;SDS011;14353;46.070;13.222;2023-05-15T09:19:04;1.20;;;0.40;;
23376;SDS011;14353;46.070;13.222;2023-05-15T09:21:30;0.52;;;0.30;;
23376;SDS011;14353;46.070;13.222;2023-05-15T09:26:42;2.97;;;0.40;;
23376;SDS011;14353;46.070;13.222;2023-05-15T09:29:14;1.23;;;0.47;;
23376;SDS011;14353;46.070;13.222;2023-05-15T09:31:40;1.35;;;0.50;;
23376;SDS011;14353;46.070;13.222;2023-05-15T09:34:06;0.55;;;0.38;;
23376;SDS011;14353;46.070;13.222;2023-05-15T09:36:34;1.55;;;0.30;;
23376;SDS011;14353;46.070;13.222;2023-05-15T09:39:00;0.68;;;0.40;;
23376;SDS011;14353;46.070;13.222;2023-05-15T09:41:27;1.52;;;0.50;;
23376;SDS011;14353;46.070;13.222;2023-05-15T09:43:53;1.63;;;0.50;;
23376;SDS011;14353;46.070;13.222;2023-05-15T09:46:21;2.35;;;0.50;;
23376;SDS011;14353;46.070;13.222;2023-05-15T09:48:47;1.65;;;0.50;;
23376;SDS011;14353;46.070;13.222;2023-05-15T09:51:17;0.65;;;0.40;;
23376;SDS011;14353;46.070;13.222;2023-05-15T09:53:51;1.02;;;0.50;;
23376;SDS011;14353;46.070;13.222;2023-05-15T09:56:17;1.23;;;0.50;;
23376;SDS011;14353;46.070;13.222;2023-05-15T09:58:53;0.40;;;0.40;;
23376;SDS011;14353;46.070;13.222;2023-05-15T10:01:20;0.60;;;0.55;;
23376;SDS011;14353;46.070;13.222;2023-05-15T10:03:59;2.70;;;0.70;;
23376;SDS011;14353;46.070;13.222;2023-05-15T10:06:26;2.53;;;0.80;;
23376;SDS011;14353;46.070;13.222;2023-05-15T10:09:00;2.20;;;0.80;;
23376;SDS011;14353;46.070;13.222;2023-05-15T10:11:27;1.10;;;0.60;;
23376;SDS011;14353;46.070;13.222;2023-05-15T10:13:56;2.22;;;0.50;;
23376;SDS011;14353;46.070;13.222;2023-05-15T10:16:23;1.25;;;0.60;;
23376;SDS011;14353;46.070;13.222;2023-05-15T10:18:52;0.40;;;0.40;;
23376;SDS011;14353;46.070;13.222;2023-05-15T10:21:18;1.15;;;0.60;;
23376;SDS011;14353;46.070;13.222;2023-05-15T10:23:47;2.28;;;0.70;;
23376;SDS011;14353;46.070;13.222;2023-05-15T10:26:18;0.60;;;0.52;;
23376;SDS011;14353;46.070;13.222;2023-05-15T10:28:47;0.82;;;0.40;;
23376;SDS011;14353;46.070;13.222;2023-05-15T10:31:15;0.57;;;0.50;;
23376;SDS011;14353;46.070;13.222;2023-05-15T10:33:42;1.35;;;0.52;;
23376;SDS011;14353;46.070;13.222;2023-05-15T10:36:09;1.38;;;0.60;;
23376;SDS011;14353;46.070;13.222;2023-05-15T10:38:35;0.95;;;0.55;;
23376;SDS011;14353;46.070;13.222;2023-05-15T10:41:02;2.05;;;0.70;;
23376;SDS011;14353;46.070;13.222;2023-05-15T10:43:29;1.58;;;0.80;;
23376;SDS011;14353;46.070;13.222;2023-05-15T10:45:55;1.52;;;0.70;;
23376;SDS011;14353;46.070;13.222;2023-05-15T10:48:22;2.35;;;0.70;;
23376;SDS011;14353;46.070;13.222;2023-05-15T10:50:48;1.70;;;0.88;;
23376;SDS011;14353;46.070;13.222;2023-05-15T10:53:15;2.45;;;0.85;;
23376;SDS011;14353;46.070;13.222;2023-05-15T10:55:41;2.35;;;0.50;;
23376;SDS011;14353;46.070;13.222;2023-05-15T10:58:07;1.45;;;0.57;;
23376;SDS011;14353;46.070;13.222;2023-05-15T11:00:36;1.80;;;0.60;;
23376;SDS011;14353;46.070;13.222;2023-05-15T11:03:06;4.07;;;0.80;;
23376;SDS011;14353;46.070;13.222;2023-05-15T11:06:05;4.32;;;0.80;;
23376;SDS011;14353;46.070;13.222;2023-05-15T11:08:34;4.72;;;0.60;;
23376;SDS011;14353;46.070;13.222;2023-05-15T11:11:04;1.67;;;0.60;;
23376;SDS011;14353;46.070;13.222;2023-05-15T11:19:24;0.90;;;0.60;;
23376;SDS011;14353;46.070;13.222;2023-05-15T11:22:21;0.77;;;0.40;;
23376;SDS011;14353;46.070;13.222;2023-05-15T11:40:48;2.75;;;0.50;;
23376;SDS011;14353;46.070;13.222;2023-05-15T11:43:18;1.13;;;0.50;;
23376;SDS011;14353;46.070;13.222;2023-05-15T11:45:55;0.38;;;0.30;;
23376;SDS011;14353;46.070;13.222;2023-05-15T11:48:29;0.68;;;0.50;;
23376;SDS011;14353;46.070;13.222;2023-05-15T11:51:24;1.67;;;0.60;;
23376;SDS011;14353;46.070;13.222;2023-05-15T11:53:52;2.35;;;0.40;;
23376;SDS011;14353;46.070;13.222;2023-05-15T11:56:19;1.23;;;0.40;;
23376;SDS011;14353;46.070;13.222;2023-05-15T11:58:48;0.38;;;0.30;;
23376;SDS011;14353;46.070;13.222;2023-05-15T12:01:17;0.30;;;0.30;;
23376;SDS011;14353;46.070;13.222;2023-05-15T12:03:43;0.30;;;0.22;;
23376;SDS011;14353;46.070;13.222;2023-05-15T12:06:11;0.95;;;0.45;;
23376;SDS011;14353;46.070;13.222;2023-05-15T12:08:37;1.85;;;0.30;;
23376;SDS011;14353;46.070;13.222;2023-05-15T12:11:03;0.73;;;0.43;;
23376;SDS011;14353;46.070;13.222;2023-05-15T12:13:30;0.73;;;0.40;;
23376;SDS011;14353;46.070;13.222;2023-05-15T12:15:57;0.57;;;0.50;;
23376;SDS011;14353;46.070;13.222;2023-05-15T12:18:23;0.43;;;0.43;;
23376;SDS011;14353;46.070;13.222;2023-05-15T12:20:52;0.57;;;0.50;;
23376;SDS011;14353;46.070;13.222;2023-05-15T12:23:22;1.25;;;0.63;;
23376;SDS011;14353;46.070;13.222;2023-05-15T12:25:50;0.50;;;0.50;;
23376;SDS011;14353;46.070;13.222;2023-05-15T12:28:19;0.50;;;0.40;;
23376;SDS011;14353;46.070;13.222;2023-05-15T12:30:45;0.90;;;0.73;;
23376;SDS011;14353;46.070;13.222;2023-05-15T12:33:11;2.15;;;0.60;;
23376;SDS011;14353;46.070;13.222;2023-05-15T12:35:40;2.63;;;0.70;;
23376;SDS011;14353;46.070;13.222;2023-05-15T12:38:09;1.10;;;0.40;;
23376;SDS011;14353;46.070;13.222;2023-05-15T12:40:42;0.50;;;0.50;;
23376;SDS011;14353;46.070;13.222;2023-05-15T12:43:09;0.82;;;0.50;;
23376;SDS011;14353;46.070;13.222;2023-05-15T12:45:37;2.90;;;0.40;;
23376;SDS011;14353;46.070;13.222;2023-05-15T12:48:03;0.80;;;0.30;;
23376;SDS011;14353;46.070;13.222;2023-05-15T12:50:31;2.50;;;0.30;;
23376;SDS011;14353;46.070;13.222;2023-05-15T12:53:02;1.80;;;0.40;;
23376;SDS011;14353;46.070;13.222;2023-05-15T12:55:30;0.52;;;0.50;;
23376;SDS011;14353;46.070;13.222;2023-05-15T12:58:04;0.30;;;0.30;;
23376;SDS011;14353;46.070;13.222;2023-05-15T13:02:58;0.85;;;0.43;;
23376;SDS011;14353;46.070;13.222;2023-05-15T13:05:25;1.52;;;0.40;;
23376;SDS011;14353;46.070;13.222;2023-05-15T13:07:51;1.58;;;0.30;;
23376;SDS011;14353;46.070;13.222;2023-05-15T13:10:21;1.58;;;0.43;;
23376;SDS011;14353;46.070;13.222;2023-05-15T13:12:47;3.40;;;0.63;;
23376;SDS011;14353;46.070;13.222;2023-05-15T13:15:24;0.73;;;0.45;;
23376;SDS011;14353;46.070;13.222;2023-05-15T13:18:01;1.63;;;0.60;;
23376;SDS011;14353;46.070;13.222;2023-05-15T13:20:36;2.28;;;0.43;;
23376;SDS011;14353;46.070;13.222;2023-05-15T13:23:14;1.20;;;0.40;;
23376;SDS011;14353;46.070;13.222;2023-05-15T13:25:41;0.82;;;0.52;;
23376;SDS011;14353;46.070;13.222;2023-05-15T13:28:07;0.75;;;0.50;;
23376;SDS011;14353;46.070;13.222;2023-05-15T13:30:34;1.48;;;0.50;;
23376;SDS011;14353;46.070;13.222;2023-05-15T13:33:03;1.27;;;0.50;;
23376;SDS011;14353;46.070;13.222;2023-05-15T13:35:30;0.65;;;0.43;;
23376;SDS011;14353;46.070;13.222;2023-05-15T13:37:55;2.55;;;0.40;;
23376;SDS011;14353;46.070;13.222;2023-05-15T13:40:21;1.15;;;0.50;;
23376;SDS011;14353;46.070;13.222;2023-05-15T13:42:47;2.42;;;0.52;;
23376;SDS011;14353;46.070;13.222;2023-05-15T13:45:14;1.92;;;0.60;;
23376;SDS011;14353;46.070;13.222;2023-05-15T13:47:40;1.63;;;0.60;;
23376;SDS011;14353;46.070;13.222;2023-05-15T13:50:07;3.13;;;0.47;;
23376;SDS011;14353;46.070;13.222;2023-05-15T13:52:35;1.48;;;0.60;;
23376;SDS011;14353;46.070;13.222;2023-05-15T13:55:01;1.08;;;0.40;;
23376;SDS011;14353;46.070;13.222;2023-05-15T13:57:28;0.77;;;0.40;;
23376;SDS011;14353;46.070;13.222;2023-05-15T13:59:55;1.77;;;0.70;;
23376;SDS011;14353;46.070;13.222;2023-05-15T14:02:20;2.88;;;0.45;;
23376;SDS011;14353;46.070;13.222;2023-05-15T14:04:50;1.60;;;0.70;;
23376;SDS011;14353;46.070;13.222;2023-05-15T14:07:17;1.08;;;0.50;;
23376;SDS011;14353;46.070;13.222;2023-05-15T14:09:43;1.50;;;0.60;;
23376;SDS011;14353;46.070;13.222;2023-05-15T14:12:08;0.60;;;0.40;;
23376;SDS011;14353;46.070;13.222;2023-05-15T14:14:35;1.60;;;0.40;;
23376;SDS011;14353;46.070;13.222;2023-05-15T14:17:01;0.50;;;0.50;;
23376;SDS011;14353;46.070;13.222;2023-05-15T14:19:27;0.50;;;0.30;;
23376;SDS011;14353;46.070;13.222;2023-05-15T14:21:53;1.17;;;0.50;;
23376;SDS011;14353;46.070;13.222;2023-05-15T14:24:19;2.97;;;0.50;;
23376;SDS011;14353;46.070;13.222;2023-05-15T14:26:44;1.15;;;0.60;;
23376;SDS011;14353;46.070;13.222;2023-05-15T14:29:10;1.55;;;0.50;;
23376;SDS011;14353;46.070;13.222;2023-05-15T14:31:36;1.08;;;0.40;;
23376;SDS011;14353;46.070;13.222;2023-05-15T14:34:02;2.97;;;0.40;;
23376;SDS011;14353;46.070;13.222;2023-05-15T14:36:29;1.77;;;0.47;;
23376;SDS011;14353;46.070;13.222;2023-05-15T14:38:55;2.05;;;0.40;;
23376;SDS011;14353;46.070;13.222;2023-05-15T14:41:21;1.17;;;0.32;;
23376;SDS011;14353;46.070;13.222;2023-05-15T14:43:46;1.02;;;0.43;;
23376;SDS011;14353;46.070;13.222;2023-05-15T14:46:12;2.38;;;0.30;;
23376;SDS011;14353;46.070;13.222;2023-05-15T14:48:38;0.88;;;0.40;;
23376;SDS011;14353;46.070;13.222;2023-05-15T14:51:04;2.58;;;0.43;;
23376;SDS011;14353;46.070;13.222;2023-05-15T14:53:30;2.08;;;0.60;;
23376;SDS011;14353;46.070;13.222;2023-05-15T14:55:55;1.20;;;0.50;;
23376;SDS011;14353;46.070;13.222;2023-05-15T14:58:22;4.00;;;0.50;;
23376;SDS011;14353;46.070;13.222;2023-05-15T15:00:48;3.65;;;0.50;;
23376;SDS011;14353;46.070;13.222;2023-05-15T15:03:14;1.42;;;0.38;;
23376;SDS011;14353;46.070;13.222;2023-05-15T15:05:40;1.83;;;0.40;;
23376;SDS011;14353;46.070;13.222;2023-05-15T15:08:07;0.80;;;0.30;;
23376;SDS011;14353;46.070;13.222;2023-05-15T15:10:34;1.60;;;0.38;;
23376;SDS011;14353;46.070;13.222;2023-05-15T15:13:02;0.50;;;0.32;;
23376;SDS011;14353;46.070;13.222;2023-05-15T15:15:30;2.95;;;0.50;;
23376;SDS011;14353;46.070;13.222;2023-05-15T15:17:57;0.77;;;0.40;;
23376;SDS011;14353;46.070;13.222;2023-05-15T15:20:23;0.45;;;0.32;;
23376;SDS011;14353;46.070;13.222;2023-05-15T15:22:50;2.83;;;0.45;;
23376;SDS011;14353;46.070;13.222;2023-05-15T15:25:17;2.90;;;0.40;;
23376;SDS011;14353;46.070;13.222;2023-05-15T15:27:43;0.35;;;0.30;;